Kezdőlap
METAR-TAF:

METAR-TAF

Repülőterek :

Szapporo, Japán

földrajzi szélesség: 43-07N, földrajzi hosszúság: 141-23E, magasság: 8 m

Jelenlegi meteorológiai megfigyelések

A jelentés 1 órával és 4 perccel ezelõtt készült, 20:00 UTC
Kelet-délkeleti szél 4 kt
Hőmérséklet 9°C
Páratartalom 93%
Légköri nyomás 1012 hPa
Látótávolság 10 km, vagy több
Szórványos felhőzet 800 lábon
Szakadozott felhőzet 4000 lábon

METAR: RJCO 292000Z 11004KT 9999 SCT008 BKN040 09/08 Q1012

Idő: 06:04 (21:04 UTC)


TAF: hiányzik

Meteorológiai megfigyelések és előrejelzések több, mint 4000 repülőtéren (METAR és TAF jelentéseket).

A térképen piros és sárga pontok jelzik az elérhető meteorológiai állomásokat.

Mozgassa az egeret a pont fölött, hogy megjelenjen az állomás neve.

Azután kattintson az időjárási megfigyelések és előrejelzések megtekintéséhez.

A térkép megváltoztatása: kattintson a fekete keresztel jelölt zöld gombra ráközelítéshez, a vonallal jelölt zöld gombra távolításhoz, vagy a zöld nyilakra a szomszédos térképek eléréséhez.


METAR-TAF: